Time;durP1;ratioP1;P1;durP2;ratioP2;P2;SDS_P1;SDS_P2;PMS_P1;PMS_P2;Temp;Humidity;BMP_temperature;BMP_pressure;BME280_temperature;BME280_humidity;BME280_pressure;Samples;Min_cycle;Max_cycle;Signal;HPM_P1;HPM_P2
2024/01/10 00:03:38;;;;;;;41.30;19.93;;;;;;;-5.58;100.00;103436.22;10412293;28;20044;-74
2024/01/10 00:08:38;;;;;;;43.73;21.73;;;;;;;-5.65;100.00;103429.44;10410085;28;20052;-74
2024/01/10 00:13:39;;;;;;;36.27;20.13;;;;;;;-5.76;100.00;103407.72;10415867;28;20041;-74
2024/01/10 00:18:42;;;;;;;45.23;20.93;;;;;;;-5.74;100.00;103421.91;10418799;28;20038;-74
2024/01/10 00:23:42;;;;;;;33.93;17.80;;;;;;;-5.73;100.00;103427.16;10420350;28;20037;-75
2024/01/10 00:28:45;;;;;;;37.80;18.80;;;;;;;-5.91;100.00;103398.69;10420549;28;20042;-75
2024/01/10 00:33:46;;;;;;;41.87;20.47;;;;;;;-5.92;100.00;103408.53;10418726;28;20042;-75
2024/01/10 00:38:46;;;;;;;44.17;20.53;;;;;;;-6.02;100.00;103391.25;10417757;28;20424;-74
2024/01/10 00:43:47;;;;;;;39.63;19.83;;;;;;;-5.88;100.00;103403.88;10390483;28;20045;-74
2024/01/10 00:48:47;;;;;;;39.47;20.80;;;;;;;-5.90;100.00;103398.59;10433187;28;20067;-74
2024/01/10 00:53:48;;;;;;;43.20;22.00;;;;;;;-5.89;100.00;103386.94;10418236;28;20041;-74
2024/01/10 00:58:48;;;;;;;40.17;19.70;;;;;;;-5.84;100.00;103389.34;10419071;28;20045;-74
2024/01/10 01:03:49;;;;;;;38.70;18.77;;;;;;;-5.84;100.00;103380.44;10417080;28;20083;-74
2024/01/10 01:08:49;;;;;;;42.00;18.83;;;;;;;-5.81;100.00;103393.69;10410209;28;20501;-74
2024/01/10 01:13:49;;;;;;;39.50;18.70;;;;;;;-5.84;100.00;103394.72;10418360;28;20038;-73
2024/01/10 01:18:50;;;;;;;36.70;18.97;;;;;;;-5.89;100.00;103394.97;10417355;28;20057;-74
2024/01/10 01:23:50;;;;;;;43.33;19.33;;;;;;;-5.92;100.00;103396.97;10415622;28;20057;-74
2024/01/10 01:28:51;;;;;;;40.27;19.47;;;;;;;-5.98;100.00;103389.28;10417824;28;20402;-74
2024/01/10 01:33:51;;;;;;;38.17;18.57;;;;;;;-5.95;100.00;103398.03;10417902;28;20048;-74
2024/01/10 01:38:52;;;;;;;36.23;18.33;;;;;;;-5.93;100.00;103395.25;10415679;28;20042;-74
2024/01/10 01:43:52;;;;;;;35.80;18.30;;;;;;;-6.03;100.00;103377.94;10414850;28;20037;-73
2024/01/10 01:48:53;;;;;;;40.67;19.40;;;;;;;-5.95;100.00;103403.41;10413294;28;20042;-75
2024/01/10 01:53:53;;;;;;;34.97;18.87;;;;;;;-6.09;100.00;103393.41;10415828;28;20064;-74
2024/01/10 01:58:54;;;;;;;36.17;17.80;;;;;;;-6.11;100.00;103392.63;10398578;28;20099;-73
2024/01/10 02:03:55;;;;;;;39.73;19.60;;;;;;;-6.13;100.00;103391.84;10393687;28;20033;-74
2024/01/10 02:08:56;;;;;;;47.43;20.13;;;;;;;-6.15;100.00;103385.69;10412636;28;20101;-74
2024/01/10 02:13:57;;;;;;;41.03;19.57;;;;;;;-6.09;100.00;103405.97;10414321;28;20138;-74
2024/01/10 02:18:57;;;;;;;47.13;22.90;;;;;;;-6.11;100.00;103392.63;10397028;28;20084;-74
2024/01/10 02:23:58;;;;;;;44.30;19.93;;;;;;;-6.14;100.00;103381.19;10415986;28;20037;-73
2024/01/10 02:28:58;;;;;;;41.93;20.47;;;;;;;-6.29;100.00;103351.56;10415955;28;20041;-73
2024/01/10 02:33:59;;;;;;;44.43;21.77;;;;;;;-6.11;100.00;103381.03;10413554;28;20045;-74
2024/01/10 02:39:00;;;;;;;48.13;23.07;;;;;;;-6.09;100.00;103381.81;10413980;28;20052;-73
2024/01/10 02:44:00;;;;;;;45.70;21.30;;;;;;;-6.14;100.00;103370.47;10413186;28;20049;-73
2024/01/10 02:49:00;;;;;;;44.50;21.47;;;;;;;-6.26;100.00;103342.53;10415994;28;20049;-74
2024/01/10 02:54:01;;;;;;;42.87;21.53;;;;;;;-6.07;100.00;103371.03;10413420;28;20041;-74
2024/01/10 02:59:02;;;;;;;48.63;21.60;;;;;;;-6.05;100.00;103363.75;10413255;28;20716;-74
2024/01/10 03:04:02;;;;;;;40.33;21.13;;;;;;;-6.06;100.00;103352.13;10421536;28;20046;-73
2024/01/10 03:09:03;;;;;;;43.23;21.27;;;;;;;-6.03;100.00;103351.97;10428701;28;20128;-74
2024/01/10 03:14:07;;;;;;;41.10;19.50;;;;;;;-6.04;100.00;103341.34;10414562;28;20041;-74
2024/01/10 03:19:07;;;;;;;41.37;20.40;;;;;;;-5.97;100.00;103354.34;10427714;28;20037;-73
2024/01/10 03:24:08;;;;;;;38.93;19.43;;;;;;;-6.09;100.00;103337.09;10406001;28;20037;-73
2024/01/10 03:29:09;;;;;;;38.77;19.83;;;;;;;-5.99;100.00;103356.22;10413462;28;20105;-74
2024/01/10 03:34:10;;;;;;;35.30;18.43;;;;;;;-6.31;100.00;103313.25;10413844;28;20033;-74
2024/01/10 03:39:10;;;;;;;42.23;19.17;;;;;;;-6.18;100.00;103332.25;10412238;28;20040;-73
2024/01/10 03:44:11;;;;;;;36.57;19.03;;;;;;;-6.08;100.00;103343.31;10428048;28;20204;-73
2024/01/10 03:49:11;;;;;;;42.43;19.60;;;;;;;-6.05;100.00;103332.44;10433531;28;20041;-73
2024/01/10 03:54:12;;;;;;;35.30;19.40;;;;;;;-6.00;100.00;103338.38;10418854;28;20113;-69
2024/01/10 03:59:12;;;;;;;36.37;19.53;;;;;;;-5.98;100.00;103339.16;10418870;28;20037;-73
2024/01/10 04:04:13;;;;;;;39.20;20.00;;;;;;;-6.04;100.00;103334.16;10416770;28;20053;-74
2024/01/10 04:09:13;;;;;;;39.93;21.07;;;;;;;-6.06;100.00;103322.63;10416550;28;20038;-73
2024/01/10 04:14:15;;;;;;;39.97;18.37;;;;;;;-6.04;100.00;103344.88;10412496;28;20398;-73
2024/01/10 04:19:15;;;;;;;36.63;19.60;;;;;;;-6.13;100.00;103329.31;10419896;28;20034;-73
2024/01/10 04:24:16;;;;;;;37.20;19.17;;;;;;;-6.14;100.00;103349.00;10418001;28;20033;-74
2024/01/10 04:29:16;;;;;;;38.00;18.83;;;;;;;-6.36;100.00;103299.25;10420829;28;20038;-73
2024/01/10 04:34:17;;;;;;;35.63;18.17;;;;;;;-6.23;100.00;103312.00;10417245;28;20042;-73
2024/01/10 04:39:18;;;;;;;41.40;19.43;;;;;;;-6.16;100.00;103326.78;10419166;28;20041;-73
2024/01/10 04:44:19;;;;;;;35.07;18.30;;;;;;;-6.23;100.00;103302.13;10407970;28;20086;-71
2024/01/10 04:49:19;;;;;;;37.10;19.77;;;;;;;-6.14;100.00;103309.69;10418681;28;20049;-73
2024/01/10 04:54:20;;;;;;;39.00;19.77;;;;;;;-6.14;100.00;103309.69;10403541;28;20037;-73
2024/01/10 04:59:20;;;;;;;40.30;21.20;;;;;;;-6.19;100.00;103298.31;10393774;28;20046;-73
2024/01/10 05:04:21;;;;;;;37.23;19.57;;;;;;;-6.10;100.00;103302.31;10417298;28;20037;-72
2024/01/10 05:09:21;;;;;;;40.30;20.47;;;;;;;-6.05;100.00;103308.28;10415067;28;20069;-71
2024/01/10 05:14:22;;;;;;;34.00;20.17;;;;;;;-6.06;100.00;103303.88;10418162;28;20049;-72
2024/01/10 05:19:23;;;;;;;38.70;20.07;;;;;;;-6.07;100.00;103296.78;10419130;28;20034;-72
2024/01/10 05:24:24;;;;;;;34.03;19.27;;;;;;;-6.08;100.00;103292.34;10416146;28;20049;-72
2024/01/10 05:29:25;;;;;;;36.50;20.50;;;;;;;-6.56;100.00;103211.03;10418211;28;20120;-72
2024/01/10 05:34:25;;;;;;;31.37;17.50;;;;;;;-6.13;100.00;103281.91;10416746;28;20030;-72
2024/01/10 05:39:26;;;;;;;37.60;19.03;;;;;;;-6.14;100.00;103290.03;10417115;28;20543;-72
2024/01/10 05:44:26;;;;;;;38.20;19.13;;;;;;;-6.23;100.00;103287.88;10416369;28;20064;-71
2024/01/10 05:49:27;;;;;;;37.83;19.83;;;;;;;-6.20;100.00;103296.59;10416181;28;20041;-72
2024/01/10 05:54:27;;;;;;;33.63;18.13;;;;;;;-6.21;100.00;103300.22;10416976;28;20052;-72
2024/01/10 05:59:28;;;;;;;41.53;20.33;;;;;;;-6.25;100.00;103295.97;10416986;28;20049;-73
2024/01/10 06:04:30;;;;;;;33.30;18.97;;;;;;;-6.66;100.00;103223.22;10390618;28;20097;-72
2024/01/10 06:09:31;;;;;;;41.73;20.63;;;;;;;-6.28;100.00;103298.84;10412747;28;20042;-72
2024/01/10 06:14:31;;;;;;;44.53;22.10;;;;;;;-6.31;100.00;103293.63;10414010;28;20044;-72
2024/01/10 06:19:32;;;;;;;49.33;22.67;;;;;;;-6.41;100.00;103266.47;10423015;28;20037;-72
2024/01/10 06:24:32;;;;;;;43.13;21.60;;;;;;;-6.24;100.00;103299.53;10415883;28;20045;-71
2024/01/10 06:29:33;;;;;;;46.57;22.00;;;;;;;-6.67;100.00;103233.06;10412586;28;20484;-71
2024/01/10 06:34:34;;;;;;;39.80;20.80;;;;;;;-6.32;100.00;103306.19;10414602;28;20044;-72
2024/01/10 06:39:34;;;;;;;38.67;21.47;;;;;;;-6.37;100.00;103294.84;10416177;28;20045;-70
2024/01/10 06:44:35;;;;;;;41.93;22.33;;;;;;;-6.34;100.00;103307.22;10412193;28;25175;-72
2024/01/10 06:49:35;;;;;;;44.23;21.53;;;;;;;-6.33;100.00;103292.84;10413335;28;20045;-72
2024/01/10 06:54:36;;;;;;;49.07;20.63;;;;;;;-6.35;100.00;103303.66;10421556;28;20037;-72
2024/01/10 06:59:37;;;;;;;41.03;20.37;;;;;;;-6.41;100.00;103293.28;10414460;28;20421;-72
2024/01/10 07:04:37;;;;;;;39.23;19.30;;;;;;;-6.43;100.00;103297.84;10395971;28;20041;-72
2024/01/10 07:09:39;;;;;;;41.40;19.40;;;;;;;-6.47;100.00;103309.69;10412910;28;20045;-72
2024/01/10 07:14:39;;;;;;;38.93;19.77;;;;;;;-6.40;100.00;103312.91;10412231;28;20191;-72
2024/01/10 07:19:40;;;;;;;38.67;17.80;;;;;;;-6.48;100.00;103297.25;10397512;28;20060;-73
2024/01/10 07:24:41;;;;;;;42.30;19.77;;;;;;;-6.51;100.00;103303.66;10421333;28;20087;-71
2024/01/10 07:29:41;;;;;;;46.37;18.23;;;;;;;-6.51;100.00;103297.41;10421202;28;20041;-72
2024/01/10 07:34:42;;;;;;;44.47;17.57;;;;;;;-6.47;100.00;103303.47;10421143;28;20049;-72
2024/01/10 07:39:42;;;;;;;41.83;17.77;;;;;;;-6.40;100.00;103305.75;10429197;28;20034;-72
2024/01/10 07:44:43;;;;;;;40.60;17.63;;;;;;;-6.54;100.00;103292.22;10422560;28;20037;-72
2024/01/10 07:49:43;;;;;;;42.53;17.50;;;;;;;-6.45;100.00;103314.97;10422513;28;20041;-71
2024/01/10 07:54:44;;;;;;;36.47;15.40;;;;;;;-6.44;100.00;103311.34;10421182;28;20061;-72
2024/01/10 07:59:45;;;;;;;40.13;17.33;;;;;;;-6.46;100.00;103310.56;10420613;28;20037;-72
2024/01/10 08:04:45;;;;;;;37.43;15.53;;;;;;;-6.44;100.00;103314.88;10416776;28;20593;-73
2024/01/10 08:09:46;;;;;;;41.20;15.30;;;;;;;-6.54;100.00;103308.28;10419000;28;20037;-71
2024/01/10 08:14:49;;;;;;;35.37;15.60;;;;;;;-6.47;100.00;103308.81;10420961;28;20056;-71
2024/01/10 08:19:51;;;;;;;38.67;14.33;;;;;;;-6.36;100.00;103318.03;10418580;28;20088;-72
2024/01/10 08:24:52;;;;;;;38.70;15.17;;;;;;;-6.30;100.00;103330.22;10417799;28;20097;-71
2024/01/10 08:29:52;;;;;;;37.63;14.97;;;;;;;-6.25;100.00;103329.97;10417843;28;20049;-72
2024/01/10 08:34:53;;;;;;;36.00;14.47;;;;;;;-6.23;100.00;103312.00;10424381;28;20041;-72
2024/01/10 08:39:53;;;;;;;38.20;14.40;;;;;;;-6.85;100.00;103202.78;10417122;28;20044;-72
2024/01/10 08:44:54;;;;;;;30.60;13.57;;;;;;;-6.09;100.00;103325.50;10401862;28;20056;-71
2024/01/10 08:49:55;;;;;;;34.60;13.97;;;;;;;-6.20;100.00;103291.25;10419549;28;20037;-71
2024/01/10 08:54:56;;;;;;;37.07;15.63;;;;;;;-5.99;100.00;103316.00;10416496;28;20485;-72
2024/01/10 08:59:56;;;;;;;35.53;12.37;;;;;;;-5.90;100.00;103314.56;10424468;28;20072;-72
2024/01/10 09:04:57;;;;;;;41.70;14.20;;;;;;;-5.85;100.00;103315.16;10416717;28;20041;-71
2024/01/10 09:09:57;;;;;;;28.50;12.43;;;;;;;-5.85;100.00;103290.16;10428847;28;20056;-71
2024/01/10 09:14:58;;;;;;;32.77;12.80;;;;;;;-5.81;100.00;103292.56;10416952;28;20041;-71
2024/01/10 09:19:58;;;;;;;36.43;11.57;;;;;;;-5.59;100.00;103315.50;10417780;28;20674;-71
2024/01/10 09:25:03;;;;;;;33.53;12.83;;;;;;;-5.93;100.00;103234.28;10416066;28;20096;-71
2024/01/10 09:30:10;;;;;;;28.00;9.93;;;;;;;-5.43;100.00;103302.09;10417603;28;20051;-72
2024/01/10 09:35:11;;;;;;;23.83;10.63;;;;;;;-5.47;100.00;103296.88;10416088;28;20041;-71
2024/01/10 09:40:12;;;;;;;31.93;11.27;;;;;;;-5.28;100.00;103306.53;10417109;28;20493;-71
2024/01/10 09:45:13;;;;;;;30.27;12.47;;;;;;;-5.24;100.00;103288.44;10397988;28;20029;-71
2024/01/10 09:50:14;;;;;;;31.20;12.13;;;;;;;-5.15;100.00;103285.19;10393383;28;20425;-71
2024/01/10 09:55:16;;;;;;;30.43;10.87;;;;;;;-4.98;100.00;103281.47;10416670;28;20033;-71
2024/01/10 10:00:17;;;;;;;31.30;12.40;;;;;;;-4.89;100.00;103289.84;10415651;28;20493;-70
2024/01/10 10:05:17;;;;;;;24.87;10.67;;;;;;;-4.83;100.00;103274.31;10415495;28;20042;-71
2024/01/10 10:10:18;;;;;;;26.17;10.33;;;;;;;-4.72;100.00;103279.88;10414679;28;20038;-70
2024/01/10 10:15:22;;;;;;;22.87;9.87;;;;;;;-4.58;100.00;103282.59;10412613;28;20056;-71
2024/01/10 10:20:27;;;;;;;23.30;10.07;;;;;;;-4.47;100.00;103282.75;10396723;28;20049;-70
2024/01/10 10:25:31;;;;;;;26.07;10.23;;;;;;;-4.36;100.00;103278.53;10396440;28;20041;-71
2024/01/10 10:30:32;;;;;;;23.97;9.07;;;;;;;-4.27;100.00;103261.81;10414538;28;20533;-71
2024/01/10 10:35:33;;;;;;;22.03;8.87;;;;;;;-4.08;100.00;103274.94;10411545;28;20063;-70
2024/01/10 10:40:34;;;;;;;23.40;8.33;;;;;;;-4.00;100.00;103259.16;10393269;28;20048;-71
2024/01/10 10:45:34;;;;;;;18.17;9.03;;;;;;;-4.02;100.00;103234.19;10410351;28;20040;-70
2024/01/10 10:50:36;;;;;;;23.23;9.17;;;;;;;-3.79;100.00;103261.41;10411017;28;20050;-72
2024/01/10 10:55:37;;;;;;;19.47;8.97;;;;;;;-3.73;100.00;103256.50;10410149;28;20117;-71
2024/01/10 11:00:37;;;;;;;20.60;9.07;;;;;;;-3.45;100.00;103273.50;10410542;28;20048;-70
2024/01/10 11:05:39;;;;;;;20.90;8.93;;;;;;;-3.26;100.00;103259.66;10412754;28;20033;-70
2024/01/10 11:10:40;;;;;;;19.17;8.43;;;;;;;-3.08;100.00;103239.53;10410623;28;20049;-72
2024/01/10 11:16:04;;;;;;;19.58;10.10;;;;;;;-2.73;100.00;103263.16;10410249;28;20053;-71
2024/01/10 11:21:16;;;;;;;17.93;9.07;;;;;;;-2.54;100.00;103251.03;10411310;28;20037;-72
2024/01/10 11:26:19;;;;;;;20.53;8.43;;;;;;;-2.36;100.00;103249.72;10409474;28;20029;-72
2024/01/10 11:31:29;;;;;;;23.47;9.07;;;;;;;-2.05;100.00;103251.06;10425664;28;20099;-72
2024/01/10 11:36:30;;;;;;;19.90;8.30;;;;;;;-1.81;100.00;103235.84;10412803;28;20068;-72
2024/01/10 11:41:31;;;;;;;18.60;8.50;;;;;;;-1.69;100.00;103227.69;10410948;28;20048;-72
2024/01/10 11:46:32;;;;;;;20.87;9.60;;;;;;;-1.55;100.00;103214.97;10406822;28;20399;-73
2024/01/10 11:51:32;;;;;;;22.40;8.83;;;;;;;-1.33;100.00;103216.88;10391809;28;20042;-73
2024/01/10 11:56:39;;;;;;;16.57;7.93;;;;;;;-1.18;100.00;103202.19;10410469;28;20485;-73
2024/01/10 12:01:40;;;;;;;17.00;8.10;;;;;;;-0.93;100.00;103197.53;10411106;28;20052;-72
2024/01/10 12:06:41;;;;;;;14.97;7.67;;;;;;;-0.87;100.00;103187.13;10410241;28;20109;-73
2024/01/10 12:11:42;;;;;;;16.17;8.10;;;;;;;-0.81;100.00;103174.94;10417199;28;20048;-73
2024/01/10 12:16:42;;;;;;;16.80;8.00;;;;;;;-0.78;100.00;103188.22;10412194;28;20113;-74
2024/01/10 12:21:43;;;;;;;13.03;6.87;;;;;;;-0.82;100.00;103189.47;10418167;28;20038;-74
2024/01/10 12:26:48;;;;;;;16.00;7.93;;;;;;;-0.91;100.00;103184.75;10418542;28;20053;-76
2024/01/10 12:31:49;;;;;;;16.55;8.05;;;;;;;-0.81;100.00;103188.47;10380584;28;20041;-75
2024/01/10 12:36:49;;;;;;;15.40;7.87;;;;;;;-1.01;100.00;103168.44;10418118;28;20037;-74
2024/01/10 12:41:50;;;;;;;17.10;7.43;;;;;;;-1.00;100.00;103153.06;10383646;28;20041;-75
2024/01/10 12:46:54;;;;;;;19.03;9.03;;;;;;;-0.83;100.00;103166.09;10376098;28;20092;-75
2024/01/10 12:51:54;;;;;;;17.27;6.77;;;;;;;-0.57;100.00;103171.25;10398245;28;20041;-74
2024/01/10 12:56:56;;;;;;;16.80;8.35;;;;;;;-0.33;100.00;103147.59;10425696;28;20038;-74
2024/01/10 13:01:57;;;;;;;13.43;6.68;;;;;;;0.07;100.00;103149.69;10416174;28;20045;-73
2024/01/10 13:06:58;;;;;;;13.93;6.70;;;;;;;0.47;100.00;103145.44;10417765;28;20586;-73
2024/01/10 13:11:58;;;;;;;16.87;7.63;;;;;;;1.15;100.00;103141.25;10416195;28;20080;-74
2024/01/10 13:16:59;;;;;;;16.25;8.45;;;;;;;1.72;100.00;103130.72;10417907;28;20054;-75
2024/01/10 13:21:59;;;;;;;16.30;8.20;;;;;;;2.29;100.00;103127.31;10414198;28;20037;-73
2024/01/10 13:27:00;;;;;;;11.98;7.75;;;;;;;2.67;100.00;103111.91;10400270;28;20037;-74
2024/01/10 13:32:00;;;;;;;16.02;7.40;;;;;;;2.91;100.00;103120.44;10412451;28;20116;-73
2024/01/10 13:37:02;;;;;;;12.38;7.10;;;;;;;2.55;100.00;103097.66;10430825;28;20041;-73
2024/01/10 13:42:02;;;;;;;16.73;7.88;;;;;;;1.56;100.00;103093.22;10430765;28;20034;-73
2024/01/10 13:47:03;;;;;;;14.77;8.38;;;;;;;0.12;100.00;103095.97;10390070;28;20041;-73
2024/01/10 13:52:04;;;;;;;17.83;7.68;;;;;;;-0.48;100.00;103136.16;10416627;28;20097;-73
2024/01/10 13:57:05;;;;;;;14.70;8.07;;;;;;;-1.01;100.00;103136.00;10408194;28;20095;-73
2024/01/10 14:02:06;;;;;;;15.13;7.47;;;;;;;-1.40;100.00;103123.78;10414178;28;20095;-72
2024/01/10 14:07:06;;;;;;;11.90;6.60;;;;;;;-1.50;100.00;103142.53;10412903;28;20204;-72
2024/01/10 14:12:07;;;;;;;15.18;7.75;;;;;;;-1.75;100.00;103135.47;10415505;28;20508;-73
2024/01/10 14:17:07;;;;;;;17.73;7.17;;;;;;;-1.72;100.00;103156.84;10411504;28;20049;-72
2024/01/10 14:22:08;;;;;;;19.17;7.80;;;;;;;-1.78;100.00;103157.31;10415583;28;20033;-72
2024/01/10 14:27:09;;;;;;;16.20;7.90;;;;;;;-1.79;100.00;103166.41;10414947;28;20152;-72
2024/01/10 14:32:11;;;;;;;17.67;7.87;;;;;;;-1.80;100.00;103164.66;10430582;28;20099;-72
2024/01/10 14:37:11;;;;;;;17.27;8.20;;;;;;;-1.77;100.00;103156.34;10413800;28;20105;-72
2024/01/10 14:42:13;;;;;;;12.90;7.37;;;;;;;-1.72;100.00;103146.88;10413506;28;20041;-72
2024/01/10 14:47:13;;;;;;;17.67;8.93;;;;;;;-1.90;100.00;103137.47;10410616;28;20187;-72
2024/01/10 14:52:14;;;;;;;19.07;10.03;;;;;;;-2.15;100.00;103143.88;10402058;28;20077;-72
2024/01/10 14:57:16;;;;;;;16.40;7.93;;;;;;;-2.43;100.00;103135.16;10425670;28;20041;-71
2024/01/10 15:02:18;;;;;;;16.57;9.43;;;;;;;-2.56;100.00;103140.59;10415269;28;20041;-72
2024/01/10 15:07:19;;;;;;;16.93;9.30;;;;;;;-2.77;100.00;103143.03;10405586;28;20061;-72
2024/01/10 15:12:19;;;;;;;19.80;9.73;;;;;;;-2.98;100.00;103131.06;10411043;28;20045;-71
2024/01/10 15:17:20;;;;;;;14.67;7.40;;;;;;;-3.22;100.00;103109.41;10411083;28;20068;-71
2024/01/10 15:22:20;;;;;;;20.60;9.50;;;;;;;-3.05;100.00;103182.72;10398032;28;20048;-71
2024/01/10 15:27:21;;;;;;;21.33;9.60;;;;;;;-3.20;100.00;103172.13;10415224;28;20038;-71
2024/01/10 15:32:21;;;;;;;18.00;9.43;;;;;;;-3.64;100.00;103115.00;10421694;28;20050;-72
2024/01/10 15:37:22;;;;;;;20.10;8.93;;;;;;;-3.41;100.00;103174.50;10413929;28;20061;-71
2024/01/10 15:42:22;;;;;;;18.83;9.43;;;;;;;-3.56;100.00;103166.50;10413185;28;20041;-70
2024/01/10 15:47:22;;;;;;;21.17;7.97;;;;;;;-3.50;100.00;103195.69;10418264;28;20042;-71
2024/01/10 15:52:26;;;;;;;20.83;9.17;;;;;;;-3.56;100.00;103206.88;10413052;28;20065;-70
2024/01/10 15:57:27;;;;;;;15.03;8.00;;;;;;;-3.64;100.00;103211.94;10419360;28;20042;-71
2024/01/10 16:02:30;;;;;;;19.23;9.77;;;;;;;-3.72;100.00;103208.88;10411770;28;20034;-71
2024/01/10 16:07:30;;;;;;;18.37;9.03;;;;;;;-3.74;100.00;103213.50;10433124;28;20042;-71
2024/01/10 16:12:31;;;;;;;20.70;9.73;;;;;;;-3.78;100.00;103217.38;10433222;28;20261;-71
2024/01/10 16:17:31;;;;;;;20.67;10.27;;;;;;;-3.89;100.00;103216.25;10419871;28;20037;-70
2024/01/10 16:22:33;;;;;;;15.73;9.23;;;;;;;-3.93;100.00;103225.50;10418467;28;20041;-70
2024/01/10 16:27:33;;;;;;;20.93;10.33;;;;;;;-3.98;100.00;103241.09;10420545;28;20045;-70
2024/01/10 16:32:34;;;;;;;23.80;11.10;;;;;;;-4.00;100.00;103242.16;10415732;28;20727;-71
2024/01/10 16:37:34;;;;;;;19.53;9.67;;;;;;;-4.09;100.00;103222.97;10407334;28;20064;-70
2024/01/10 16:42:35;;;;;;;20.90;10.77;;;;;;;-4.11;100.00;103215.97;10418223;28;20033;-71
2024/01/10 16:47:36;;;;;;;25.33;11.17;;;;;;;-4.11;100.00;103224.03;10418579;28;20068;-71
2024/01/10 16:52:36;;;;;;;20.27;9.67;;;;;;;-4.16;100.00;103227.00;10417421;28;20054;-67
2024/01/10 16:57:37;;;;;;;22.07;11.27;;;;;;;-4.25;100.00;103216.88;10412115;28;20030;-71
2024/01/10 17:02:37;;;;;;;25.43;10.20;;;;;;;-4.33;100.00;103209.28;10409148;28;20053;-70
2024/01/10 17:07:38;;;;;;;21.40;11.67;;;;;;;-4.30;100.00;103230.63;10387195;28;20064;-71
2024/01/10 17:12:38;;;;;;;22.33;11.17;;;;;;;-4.39;100.00;103219.59;10396580;28;20375;-70
2024/01/10 17:17:39;;;;;;;21.53;10.80;;;;;;;-4.47;100.00;103228.13;10378743;28;20037;-71
2024/01/10 17:22:40;;;;;;;21.37;11.97;;;;;;;-4.50;100.00;103231.88;10418890;28;20041;-73
2024/01/10 17:27:41;;;;;;;27.97;12.23;;;;;;;-4.63;100.00;103227.38;10416916;28;20038;-72
2024/01/10 17:32:41;;;;;;;27.23;11.77;;;;;;;-4.58;100.00;103236.03;10396076;28;20477;-72
2024/01/10 17:37:42;;;;;;;23.97;11.83;;;;;;;-4.61;100.00;103236.19;10404856;28;20041;-73
2024/01/10 17:42:42;;;;;;;27.20;11.70;;;;;;;-4.74;100.00;103234.28;10406984;28;20049;-72
2024/01/10 17:47:42;;;;;;;22.83;11.87;;;;;;;-4.92;100.00;103205.88;10416143;28;20049;-72
2024/01/10 17:52:43;;;;;;;29.03;13.77;;;;;;;-4.78;100.00;103235.44;10413855;28;20072;-71
2024/01/10 17:57:44;;;;;;;27.40;14.30;;;;;;;-4.82;100.00;103243.78;10414722;28;20064;-73
2024/01/10 18:02:44;;;;;;;26.53;13.00;;;;;;;-4.88;100.00;103250.41;10407681;28;20037;-70
2024/01/10 18:07:48;;;;;;;24.13;12.83;;;;;;;-4.93;100.00;103252.53;10407474;28;20038;-73
2024/01/10 18:12:49;;;;;;;31.67;13.87;;;;;;;-5.67;100.00;103144.19;10405377;28;20453;-73
2024/01/10 18:17:49;;;;;;;31.90;14.33;;;;;;;-5.09;100.00;103260.63;10413256;28;20064;-73
2024/01/10 18:22:50;;;;;;;33.43;15.33;;;;;;;-5.09;100.00;103269.56;10416934;28;20070;-73
2024/01/10 18:27:50;;;;;;;30.53;15.33;;;;;;;-5.23;100.00;103250.72;10412467;28;20029;-72
2024/01/10 18:32:51;;;;;;;28.63;13.40;;;;;;;-5.15;100.00;103267.25;10412483;28;20040;-73
2024/01/10 18:37:51;;;;;;;28.70;14.37;;;;;;;-5.20;100.00;103279.22;10408500;28;20068;-73
2024/01/10 18:42:52;;;;;;;32.37;14.53;;;;;;;-5.22;100.00;103273.94;10399437;28;20049;-70
2024/01/10 18:47:53;;;;;;;33.17;14.80;;;;;;;-5.29;100.00;103272.59;10410271;28;20045;-73
2024/01/10 18:52:55;;;;;;;34.23;15.63;;;;;;;-5.47;100.00;103253.94;10408278;28;20034;-72
2024/01/10 18:57:55;;;;;;;36.73;15.90;;;;;;;-5.48;100.00;103271.00;10410198;28;20037;-73
2024/01/10 19:02:57;;;;;;;40.57;17.77;;;;;;;-5.44;100.00;103285.09;10404723;28;20053;-72
2024/01/10 19:07:58;;;;;;;32.60;15.10;;;;;;;-5.44;100.00;103290.44;10397263;28;20096;-72
2024/01/10 19:12:58;;;;;;;30.47;15.23;;;;;;;-5.44;100.00;103297.66;10398771;28;20064;-72
2024/01/10 19:17:59;;;;;;;34.30;17.73;;;;;;;-5.43;100.00;103302.94;10387583;28;1114715;-72
2024/01/10 19:23:00;;;;;;;34.07;16.30;;;;;;;-5.49;100.00;103293.41;10404663;28;20045;-73
2024/01/10 19:28:00;;;;;;;39.10;16.67;;;;;;;-5.55;100.00;103291.09;10403767;28;20135;-72
2024/01/10 19:33:01;;;;;;;34.43;17.20;;;;;;;-5.57;100.00;103294.81;10392371;28;20030;-73
2024/01/10 19:38:01;;;;;;;43.53;18.70;;;;;;;-5.53;100.00;103299.91;10407406;28;20068;-72
2024/01/10 19:43:02;;;;;;;39.40;17.77;;;;;;;-5.62;100.00;103303.16;10407635;28;20527;-72
2024/01/10 19:48:03;;;;;;;38.87;17.77;;;;;;;-5.63;100.00;103300.53;10412336;28;20065;-73
2024/01/10 19:53:04;;;;;;;45.50;18.87;;;;;;;-5.60;100.00;103328.06;10409116;28;20037;-72
2024/01/10 19:58:04;;;;;;;38.43;18.67;;;;;;;-5.62;100.00;103318.34;10416504;28;20052;-73
2024/01/10 20:03:05;;;;;;;43.07;20.27;;;;;;;-5.65;100.00;103338.19;10405544;28;20038;-73
2024/01/10 20:08:05;;;;;;;39.37;19.23;;;;;;;-5.72;100.00;103337.69;10391581;28;20100;-72
2024/01/10 20:13:06;;;;;;;40.33;16.93;;;;;;;-5.76;100.00;103321.84;10402969;28;20117;-73
2024/01/10 20:18:07;;;;;;;40.50;19.70;;;;;;;-5.70;100.00;103334.94;10400119;28;20030;-73
2024/01/10 20:23:07;;;;;;;41.87;19.77;;;;;;;-5.78;100.00;103323.75;10404330;28;20050;-73
2024/01/10 20:28:11;;;;;;;40.30;19.27;;;;;;;-5.85;100.00;103339.31;10403201;28;20045;-73
2024/01/10 20:33:12;;;;;;;45.47;20.13;;;;;;;-5.89;100.00;103354.75;10400249;28;20060;-73
2024/01/10 20:38:12;;;;;;;42.60;19.97;;;;;;;-5.93;100.00;103337.09;10414856;28;20041;-72
2024/01/10 20:43:12;;;;;;;44.27;19.57;;;;;;;-6.00;100.00;103340.22;10402577;28;20041;-72
2024/01/10 20:48:13;;;;;;;43.63;19.50;;;;;;;-6.19;100.00;103321.59;10420191;28;20042;-70
2024/01/10 20:53:15;;;;;;;48.00;20.70;;;;;;;-6.04;100.00;103342.19;10412037;28;20045;-72
2024/01/10 20:58:16;;;;;;;47.57;20.43;;;;;;;-6.04;100.00;103350.25;10403672;28;20046;-72
2024/01/10 21:03:17;;;;;;;48.47;21.10;;;;;;;-6.11;100.00;103340.81;10405025;28;20034;-72
2024/01/10 21:08:18;;;;;;;46.07;21.10;;;;;;;-6.21;100.00;103339.59;10412155;28;20042;-73
2024/01/10 21:13:18;;;;;;;49.10;21.10;;;;;;;-6.13;100.00;103361.50;10413368;28;20060;-72
2024/01/10 21:18:19;;;;;;;50.00;20.97;;;;;;;-6.16;100.00;103365.22;10418573;28;20509;-72
2024/01/10 21:23:19;;;;;;;46.77;20.03;;;;;;;-6.21;100.00;103353.84;10418991;28;20037;-72
2024/01/10 21:28:20;;;;;;;42.80;21.07;;;;;;;-6.21;100.00;103340.44;10416740;28;20045;-73
2024/01/10 21:33:20;;;;;;;47.97;20.90;;;;;;;-6.27;100.00;103337.25;10418166;28;20033;-72
2024/01/10 21:38:21;;;;;;;52.77;21.77;;;;;;;-6.20;100.00;103360.06;10397816;28;20033;-73
2024/01/10 21:43:21;;;;;;;48.23;21.23;;;;;;;-6.22;100.00;103340.53;10416315;28;20084;-69
2024/01/10 21:48:22;;;;;;;48.33;21.87;;;;;;;-6.29;100.00;103340.00;10418235;28;21603;-71
2024/01/10 21:53:22;;;;;;;50.07;21.90;;;;;;;-6.28;100.00;103347.09;10408525;28;20045;-72
2024/01/10 21:58:23;;;;;;;53.90;23.03;;;;;;;-6.30;100.00;103349.84;10415035;28;20042;-72
2024/01/10 22:03:24;;;;;;;51.73;21.77;;;;;;;-6.33;100.00;103350.00;10408223;28;20069;-73
2024/01/10 22:08:25;;;;;;;57.27;22.40;;;;;;;-6.24;100.00;103372.81;10400001;28;20049;-73
2024/01/10 22:13:25;;;;;;;49.47;22.67;;;;;;;-6.25;100.00;103378.25;10422455;28;20425;-69
2024/01/10 22:18:26;;;;;;;47.23;21.80;;;;;;;-6.37;100.00;103356.47;10415217;28;20444;-73
2024/01/10 22:23:26;;;;;;;51.93;21.43;;;;;;;-6.39;100.00;103374.47;10414493;28;20120;-73